Bookmark and Share
Track history (hours):
 

Kenneth Eddy

Last reported at 2014-Mar-12 19:33 UTC. Time now 2014-Apr-24 05:52 UTC.
Position N 38°48' W 084°10'.
Warning: this ship's position is 42 days out of date.

Length 47 m.

Type: Towing. MMSI: 366999372.

NotesDate/timePositionNaut miles runAvg speedWind from/ knotsBaromVisibWave heightAir tempDewpointWater temp
2014-Mar-12 19:33N 38°48' W 084°10'0 0.0
2014-Mar-12 18:31N 38°48' W 084°10'0 0.0
2014-Mar-12 17:33N 38°48' W 084°10'0 0.0
2014-Mar-12 15:29N 38°48' W 084°10'0 0.0
2014-Mar-12 14:32N 38°48' W 084°10'0 0.0
2014-Mar-12 08:19N 38°48' W 084°10'0 0.0
2014-Mar-12 07:31N 38°48' W 084°10'0 0.0
2014-Mar-11 16:33N 38°48' W 084°10'0 0.0
2014-Mar-11 14:32N 38°48' W 084°10'0 0.0
2014-Mar-11 13:32N 38°48' W 084°10'0 0.0
2014-Mar-11 04:21N 38°48' W 084°10'0 0.0
2014-Mar-11 02:06N 38°48' W 084°10'0 0.1
2014-Mar-11 01:33N 38°48' W 084°10'0 0.0
2014-Mar-10 15:29N 38°48' W 084°10'0 0.0
2014-Mar-10 12:25N 38°48' W 084°10'0 0.0
2014-Mar-10 11:28N 38°48' W 084°10'0 0.0
2014-Mar-10 10:31N 38°48' W 084°10'0 0.0
2014-Mar-10 09:32N 38°48' W 084°10'0 0.0
2014-Mar-10 08:33N 38°48' W 084°10'0 0.0
2014-Mar-10 07:31N 38°48' W 084°10'0 0.0
2014-Mar-10 06:33N 38°48' W 084°10'0 0.0
2014-Mar-10 05:33N 38°48' W 084°10'0 0.0
2014-Mar-10 04:31N 38°48' W 084°10'0 0.0
2014-Mar-10 03:12N 38°48' W 084°10'0 0.0
2014-Mar-10 02:16N 38°48' W 084°10'0 0.0
2014-Mar-10 01:14N 38°48' W 084°10'0 0.0
2014-Mar-09 17:23N 38°48' W 084°10'0 0.0
2014-Mar-09 16:32N 38°48' W 084°10'0 0.0
2014-Mar-09 06:32N 38°48' W 084°10'0 0.0
2014-Mar-09 05:32N 38°48' W 084°10'0 0.0
2014-Mar-09 04:27N 38°48' W 084°10'0 0.0
2014-Mar-09 03:29N 38°48' W 084°10'0 0.0
2014-Mar-09 02:30N 38°48' W 084°10'0 0.0
2014-Mar-09 01:21N 38°48' W 084°10'0 0.0
2014-Mar-09 00:33N 38°48' W 084°10'0 0.0
2014-Mar-08 23:30N 38°48' W 084°10'0 0.0
2014-Mar-08 22:34N 38°48' W 084°10'0 0.1
2014-Mar-08 19:32N 38°48' W 084°10'0 0.3
2014-Mar-08 18:32N 38°48' W 084°10'0 0.0
2014-Mar-08 17:33N 38°48' W 084°10'1 1.0
2014-Mar-08 16:31N 38°48' W 084°12'7 7.3
2014-Mar-08 15:31N 38°55' W 084°15'8 8.1
2014-Mar-08 14:33N 39°02' W 084°20'7 6.9
2014-Mar-08 13:33N 39°06' W 084°26'5 5.5
2014-Mar-08 12:33N 39°06' W 084°33'6 5.7
2014-Mar-08 11:33N 39°06' W 084°41'4 4.2
2014-Mar-08 10:33N 39°09' W 084°45'0 0.0
2014-Mar-06 20:32N 39°09' W 084°44'11 5.7
2014-Mar-06 18:31N 39°06' W 084°30'4 4.0
2014-Mar-06 17:32N 39°03' W 084°26'7 6.9
2014-Mar-06 16:33N 39°00' W 084°18'1 1.1
2014-Mar-06 15:33N 38°59' W 084°18'0 0.0
2014-Mar-06 14:32N 38°59' W 084°18'0 0.0
2014-Mar-06 13:33N 38°59' W 084°18'0 0.0
2014-Mar-06 12:32N 38°59' W 084°18'0 0.0
2014-Mar-06 11:32N 38°59' W 084°18'2 1.9
2014-Mar-06 10:33N 38°57' W 084°17'9 7.7
2014-Mar-06 09:25N 38°49' W 084°14'3 3.3
2014-Mar-06 08:32N 38°48' W 084°10'0 0.0
2014-Mar-06 07:31N 38°48' W 084°10'0 0.1
2014-Mar-06 06:32N 38°48' W 084°10'0 0.1
2014-Mar-06 05:33N 38°48' W 084°11'0 0.0
2014-Mar-06 04:30N 38°48' W 084°11'0 0.2
2014-Mar-06 03:33N 38°48' W 084°10'0 0.0
2014-Mar-06 02:34N 38°48' W 084°10'0 0.0
2014-Mar-06 01:33N 38°48' W 084°10'0 0.0
2014-Mar-06 00:33N 38°48' W 084°10'0 0.0
2014-Mar-05 23:33N 38°48' W 084°10'0 0.0
2014-Mar-05 22:32N 38°48' W 084°10'0 0.0
2014-Mar-05 21:32N 38°48' W 084°10'0 0.0
2014-Mar-05 20:32N 38°48' W 084°10'0 0.0
2014-Mar-05 18:29N 38°48' W 084°10'0 0.0
2014-Mar-05 17:22N 38°48' W 084°10'0 0.0
2014-Mar-05 16:33N 38°48' W 084°10'0 0.0
2014-Mar-05 15:32N 38°48' W 084°10'0 0.0
2014-Mar-05 14:34N 38°48' W 084°10'0 0.0
2014-Mar-05 13:31N 38°48' W 084°10'0 0.0
2014-Mar-05 12:32N 38°48' W 084°10'0 0.0
2014-Mar-05 11:32N 38°48' W 084°10'0 0.0
2014-Mar-05 10:32N 38°48' W 084°10'0 0.0
2014-Mar-05 09:32N 38°48' W 084°10'0 0.0
2014-Mar-05 08:34N 38°48' W 084°10'0 0.0
2014-Mar-05 07:32N 38°48' W 084°10'0 0.0
2014-Mar-05 06:33N 38°48' W 084°10'0 0.0
2014-Mar-05 05:32N 38°48' W 084°10'0 0.0
2014-Mar-05 04:28N 38°48' W 084°10'0 0.2
2014-Mar-05 03:11N 38°48' W 084°10'0 0.2
2014-Mar-05 02:21N 38°48' W 084°10'0 0.1
2014-Mar-05 01:21N 38°48' W 084°10'0 0.2
2014-Mar-05 00:32N 38°48' W 084°10'0 0.0
2014-Mar-04 21:17N 38°48' W 084°10'0 0.0
2014-Mar-04 20:33N 38°48' W 084°10'0 0.0
2014-Mar-04 18:16N 38°48' W 084°10'0 0.0
2014-Mar-04 17:15N 38°48' W 084°10'0 0.0
2014-Mar-04 16:27N 38°48' W 084°10'0 0.0
2014-Mar-04 15:33N 38°48' W 084°10'0 0.0
2014-Mar-04 14:30N 38°48' W 084°10'0 0.0
2014-Mar-04 13:31N 38°48' W 084°10'0 0.0
2014-Mar-04 12:27N 38°48' W 084°10'0 0.0
2014-Mar-04 11:32N 38°48' W 084°10'0 0.0
2014-Mar-04 10:33N 38°48' W 084°10'0 0.0
2014-Mar-04 09:31N 38°48' W 084°10'0 0.0
2014-Mar-04 08:33N 38°48' W 084°10'0 0.0
2014-Mar-04 07:32N 38°48' W 084°10'0 0.0
2014-Mar-04 06:34N 38°48' W 084°10'0 0.0
2014-Mar-04 05:29N 38°48' W 084°10'0 0.0
2014-Mar-04 04:31N 38°48' W 084°10'0 0.0
2014-Mar-04 03:33N 38°48' W 084°10'0 0.0
2014-Mar-04 02:33N 38°48' W 084°10'0 0.0
2014-Mar-04 01:31N 38°48' W 084°10'0 0.0
2014-Mar-04 00:17N 38°48' W 084°10'0 0.0
2014-Mar-03 19:18N 38°48' W 084°10'0 0.0
2014-Mar-03 17:21N 38°48' W 084°10'0 0.0
2014-Mar-03 16:31N 38°48' W 084°10'0 0.0
2014-Mar-03 15:29N 38°48' W 084°10'0 0.0
2014-Mar-03 14:32N 38°48' W 084°10'0 0.0
2014-Mar-03 13:30N 38°48' W 084°10'0 0.0
2014-Mar-03 12:31N 38°48' W 084°10'0 0.0
2014-Mar-03 11:29N 38°48' W 084°10'0 0.0
2014-Mar-03 10:28N 38°48' W 084°10'0 0.0
2014-Mar-03 09:31N 38°48' W 084°10'0 0.0
2014-Mar-03 08:33N 38°48' W 084°10'0 0.0
2014-Mar-03 06:31N 38°48' W 084°10'0 0.0
2014-Mar-03 04:27N 38°48' W 084°10'0 0.0
2014-Mar-03 03:31N 38°48' W 084°10'0 0.0
2014-Mar-03 02:26N 38°48' W 084°10'0 0.0
2014-Mar-02 21:29N 38°48' W 084°10'0 0.1
2014-Mar-02 20:16N 38°48' W 084°10'  

Dump ship's entire track history

sailing weather and tide predictions

Kenneth Eddy — AEAE — position and weather